sensor_id;sensor_type;location;lat;lon;timestamp;P1;durP1;ratioP1;P2;durP2;ratioP2
19221;SDS011;9745;50.828;4.378;2023-05-14T00:01:42;74.60;;;42.77;;
19221;SDS011;9745;50.828;4.378;2023-05-14T00:04:10;66.70;;;39.97;;
19221;SDS011;9745;50.828;4.378;2023-05-14T00:06:36;70.50;;;41.03;;
19221;SDS011;9745;50.828;4.378;2023-05-14T00:09:02;73.10;;;39.40;;
19221;SDS011;9745;50.828;4.378;2023-05-14T00:11:28;74.70;;;41.77;;
19221;SDS011;9745;50.828;4.378;2023-05-14T00:13:54;67.57;;;40.97;;
19221;SDS011;9745;50.828;4.378;2023-05-14T00:16:20;74.17;;;41.73;;
19221;SDS011;9745;50.828;4.378;2023-05-14T00:18:46;73.20;;;42.43;;
19221;SDS011;9745;50.828;4.378;2023-05-14T00:21:12;83.60;;;44.47;;
19221;SDS011;9745;50.828;4.378;2023-05-14T00:23:38;70.13;;;41.67;;
19221;SDS011;9745;50.828;4.378;2023-05-14T00:26:04;87.17;;;43.77;;
19221;SDS011;9745;50.828;4.378;2023-05-14T00:28:30;82.53;;;43.93;;
19221;SDS011;9745;50.828;4.378;2023-05-14T00:30:56;75.93;;;41.73;;
19221;SDS011;9745;50.828;4.378;2023-05-14T00:33:22;76.50;;;43.30;;
19221;SDS011;9745;50.828;4.378;2023-05-14T00:35:48;75.10;;;43.67;;
19221;SDS011;9745;50.828;4.378;2023-05-14T00:38:15;79.57;;;43.83;;
19221;SDS011;9745;50.828;4.378;2023-05-14T00:40:43;80.23;;;43.57;;
19221;SDS011;9745;50.828;4.378;2023-05-14T00:43:14;79.47;;;42.97;;
19221;SDS011;9745;50.828;4.378;2023-05-14T00:45:40;73.87;;;43.27;;
19221;SDS011;9745;50.828;4.378;2023-05-14T00:48:06;81.73;;;44.07;;
19221;SDS011;9745;50.828;4.378;2023-05-14T00:50:32;82.03;;;44.83;;
19221;SDS011;9745;50.828;4.378;2023-05-14T00:52:58;84.87;;;43.77;;
19221;SDS011;9745;50.828;4.378;2023-05-14T00:55:25;75.80;;;43.40;;
19221;SDS011;9745;50.828;4.378;2023-05-14T00:57:51;77.83;;;43.13;;
19221;SDS011;9745;50.828;4.378;2023-05-14T01:00:18;77.80;;;43.40;;
19221;SDS011;9745;50.828;4.378;2023-05-14T01:02:44;80.33;;;44.37;;
19221;SDS011;9745;50.828;4.378;2023-05-14T01:05:10;80.80;;;43.57;;
19221;SDS011;9745;50.828;4.378;2023-05-14T01:10:14;77.57;;;42.83;;
19221;SDS011;9745;50.828;4.378;2023-05-14T01:15:32;85.20;;;44.80;;
19221;SDS011;9745;50.828;4.378;2023-05-14T01:18:09;89.67;;;45.27;;
19221;SDS011;9745;50.828;4.378;2023-05-14T01:20:35;78.20;;;42.43;;
19221;SDS011;9745;50.828;4.378;2023-05-14T01:23:01;80.40;;;43.43;;
19221;SDS011;9745;50.828;4.378;2023-05-14T01:25:28;84.73;;;45.37;;
19221;SDS011;9745;50.828;4.378;2023-05-14T01:27:56;81.87;;;43.43;;
19221;SDS011;9745;50.828;4.378;2023-05-14T01:32:55;78.83;;;42.87;;
19221;SDS011;9745;50.828;4.378;2023-05-14T01:35:24;82.07;;;42.20;;
19221;SDS011;9745;50.828;4.378;2023-05-14T01:37:50;79.30;;;44.00;;
19221;SDS011;9745;50.828;4.378;2023-05-14T01:40:18;78.13;;;42.30;;
19221;SDS011;9745;50.828;4.378;2023-05-14T01:42:44;75.10;;;42.90;;
19221;SDS011;9745;50.828;4.378;2023-05-14T01:45:10;81.20;;;42.47;;
19221;SDS011;9745;50.828;4.378;2023-05-14T01:47:36;81.37;;;43.40;;
19221;SDS011;9745;50.828;4.378;2023-05-14T01:50:02;78.43;;;44.20;;
19221;SDS011;9745;50.828;4.378;2023-05-14T01:52:28;81.43;;;43.20;;
19221;SDS011;9745;50.828;4.378;2023-05-14T01:54:54;83.23;;;44.70;;
19221;SDS011;9745;50.828;4.378;2023-05-14T01:57:22;86.17;;;44.70;;
19221;SDS011;9745;50.828;4.378;2023-05-14T01:59:48;88.43;;;44.43;;
19221;SDS011;9745;50.828;4.378;2023-05-14T02:02:14;86.33;;;44.93;;
19221;SDS011;9745;50.828;4.378;2023-05-14T02:04:40;96.33;;;45.37;;
19221;SDS011;9745;50.828;4.378;2023-05-14T02:07:06;81.70;;;44.43;;
19221;SDS011;9745;50.828;4.378;2023-05-14T02:09:32;83.40;;;44.37;;
19221;SDS011;9745;50.828;4.378;2023-05-14T02:11:58;74.90;;;44.07;;
19221;SDS011;9745;50.828;4.378;2023-05-14T02:14:24;85.27;;;45.77;;
19221;SDS011;9745;50.828;4.378;2023-05-14T02:16:50;87.50;;;44.53;;
19221;SDS011;9745;50.828;4.378;2023-05-14T02:19:16;85.50;;;45.03;;
19221;SDS011;9745;50.828;4.378;2023-05-14T02:21:42;83.93;;;43.80;;
19221;SDS011;9745;50.828;4.378;2023-05-14T02:24:08;89.07;;;44.83;;
19221;SDS011;9745;50.828;4.378;2023-05-14T02:26:34;84.70;;;45.80;;
19221;SDS011;9745;50.828;4.378;2023-05-14T02:29:00;81.60;;;43.87;;
19221;SDS011;9745;50.828;4.378;2023-05-14T02:31:27;82.47;;;43.17;;
19221;SDS011;9745;50.828;4.378;2023-05-14T02:33:53;83.53;;;42.27;;
19221;SDS011;9745;50.828;4.378;2023-05-14T02:36:19;80.03;;;43.50;;
19221;SDS011;9745;50.828;4.378;2023-05-14T02:38:45;81.30;;;41.90;;
19221;SDS011;9745;50.828;4.378;2023-05-14T02:41:11;68.83;;;40.80;;
19221;SDS011;9745;50.828;4.378;2023-05-14T02:43:37;82.93;;;45.23;;
19221;SDS011;9745;50.828;4.378;2023-05-14T02:46:03;80.50;;;43.20;;
19221;SDS011;9745;50.828;4.378;2023-05-14T02:48:29;84.77;;;43.03;;
19221;SDS011;9745;50.828;4.378;2023-05-14T02:50:55;80.73;;;43.47;;
19221;SDS011;9745;50.828;4.378;2023-05-14T02:53:21;79.57;;;42.53;;
19221;SDS011;9745;50.828;4.378;2023-05-14T02:55:47;75.23;;;41.20;;
19221;SDS011;9745;50.828;4.378;2023-05-14T02:58:13;75.37;;;39.50;;
19221;SDS011;9745;50.828;4.378;2023-05-14T03:00:39;76.43;;;40.77;;
19221;SDS011;9745;50.828;4.378;2023-05-14T03:03:05;78.10;;;39.80;;
19221;SDS011;9745;50.828;4.378;2023-05-14T03:05:31;78.20;;;43.63;;
19221;SDS011;9745;50.828;4.378;2023-05-14T03:07:57;72.63;;;40.27;;
19221;SDS011;9745;50.828;4.378;2023-05-14T03:10:23;74.40;;;41.10;;
19221;SDS011;9745;50.828;4.378;2023-05-14T03:12:49;79.13;;;41.93;;
19221;SDS011;9745;50.828;4.378;2023-05-14T03:15:16;79.90;;;42.37;;
19221;SDS011;9745;50.828;4.378;2023-05-14T03:17:42;81.40;;;41.80;;
19221;SDS011;9745;50.828;4.378;2023-05-14T03:20:08;76.93;;;41.87;;
19221;SDS011;9745;50.828;4.378;2023-05-14T03:22:34;76.03;;;42.00;;
19221;SDS011;9745;50.828;4.378;2023-05-14T03:25:00;69.20;;;40.27;;
19221;SDS011;9745;50.828;4.378;2023-05-14T03:27:26;83.83;;;42.70;;
19221;SDS011;9745;50.828;4.378;2023-05-14T03:29:53;77.07;;;41.40;;
19221;SDS011;9745;50.828;4.378;2023-05-14T03:32:19;78.23;;;42.80;;
19221;SDS011;9745;50.828;4.378;2023-05-14T03:34:45;76.00;;;42.00;;
19221;SDS011;9745;50.828;4.378;2023-05-14T03:37:20;77.60;;;42.53;;
19221;SDS011;9745;50.828;4.378;2023-05-14T03:39:46;72.53;;;40.90;;
19221;SDS011;9745;50.828;4.378;2023-05-14T03:45:06;74.53;;;41.03;;
19221;SDS011;9745;50.828;4.378;2023-05-14T03:47:33;79.00;;;40.80;;
19221;SDS011;9745;50.828;4.378;2023-05-14T03:49:59;76.93;;;40.37;;
19221;SDS011;9745;50.828;4.378;2023-05-14T03:52:25;79.97;;;40.57;;
19221;SDS011;9745;50.828;4.378;2023-05-14T03:54:51;77.27;;;41.67;;
19221;SDS011;9745;50.828;4.378;2023-05-14T03:57:17;79.87;;;40.70;;
19221;SDS011;9745;50.828;4.378;2023-05-14T03:59:43;78.03;;;42.50;;
19221;SDS011;9745;50.828;4.378;2023-05-14T04:02:09;83.30;;;41.57;;
19221;SDS011;9745;50.828;4.378;2023-05-14T04:04:35;77.73;;;41.10;;
19221;SDS011;9745;50.828;4.378;2023-05-14T04:07:01;78.93;;;41.37;;
19221;SDS011;9745;50.828;4.378;2023-05-14T04:09:27;80.50;;;40.43;;
19221;SDS011;9745;50.828;4.378;2023-05-14T04:11:53;82.63;;;43.23;;
19221;SDS011;9745;50.828;4.378;2023-05-14T04:14:19;75.00;;;42.23;;
19221;SDS011;9745;50.828;4.378;2023-05-14T04:16:45;74.83;;;40.57;;
19221;SDS011;9745;50.828;4.378;2023-05-14T04:19:11;79.03;;;42.53;;
19221;SDS011;9745;50.828;4.378;2023-05-14T04:21:37;75.97;;;41.53;;
19221;SDS011;9745;50.828;4.378;2023-05-14T04:24:04;74.27;;;40.97;;
19221;SDS011;9745;50.828;4.378;2023-05-14T04:26:30;81.17;;;40.87;;
19221;SDS011;9745;50.828;4.378;2023-05-14T04:28:56;84.63;;;41.40;;
19221;SDS011;9745;50.828;4.378;2023-05-14T04:31:26;80.37;;;41.43;;
19221;SDS011;9745;50.828;4.378;2023-05-14T04:33:52;83.93;;;43.57;;
19221;SDS011;9745;50.828;4.378;2023-05-14T04:36:18;78.43;;;41.23;;
19221;SDS011;9745;50.828;4.378;2023-05-14T04:38:44;76.37;;;40.27;;
19221;SDS011;9745;50.828;4.378;2023-05-14T04:41:10;79.87;;;41.83;;
19221;SDS011;9745;50.828;4.378;2023-05-14T04:43:37;71.10;;;39.83;;
19221;SDS011;9745;50.828;4.378;2023-05-14T04:46:03;78.03;;;40.63;;
19221;SDS011;9745;50.828;4.378;2023-05-14T04:48:29;80.27;;;41.47;;
19221;SDS011;9745;50.828;4.378;2023-05-14T04:50:55;69.20;;;40.47;;
19221;SDS011;9745;50.828;4.378;2023-05-14T04:53:21;80.30;;;40.60;;
19221;SDS011;9745;50.828;4.378;2023-05-14T04:55:48;76.37;;;39.67;;
19221;SDS011;9745;50.828;4.378;2023-05-14T04:58:14;65.63;;;38.47;;
19221;SDS011;9745;50.828;4.378;2023-05-14T05:00:40;70.80;;;38.37;;
19221;SDS011;9745;50.828;4.378;2023-05-14T05:03:06;74.13;;;40.00;;
19221;SDS011;9745;50.828;4.378;2023-05-14T05:05:32;69.53;;;38.37;;
19221;SDS011;9745;50.828;4.378;2023-05-14T05:07:59;71.00;;;39.53;;
19221;SDS011;9745;50.828;4.378;2023-05-14T05:10:25;70.40;;;40.00;;
19221;SDS011;9745;50.828;4.378;2023-05-14T05:12:51;71.93;;;36.83;;
19221;SDS011;9745;50.828;4.378;2023-05-14T05:15:17;69.67;;;38.90;;
19221;SDS011;9745;50.828;4.378;2023-05-14T05:17:43;76.00;;;40.70;;
19221;SDS011;9745;50.828;4.378;2023-05-14T05:20:09;71.63;;;38.83;;
19221;SDS011;9745;50.828;4.378;2023-05-14T05:22:35;72.20;;;38.73;;
19221;SDS011;9745;50.828;4.378;2023-05-14T05:25:02;72.03;;;38.90;;
19221;SDS011;9745;50.828;4.378;2023-05-14T05:27:30;77.20;;;39.43;;
19221;SDS011;9745;50.828;4.378;2023-05-14T05:29:57;69.87;;;37.13;;
19221;SDS011;9745;50.828;4.378;2023-05-14T05:32:23;67.43;;;38.03;;
19221;SDS011;9745;50.828;4.378;2023-05-14T05:34:49;69.60;;;38.87;;
19221;SDS011;9745;50.828;4.378;2023-05-14T05:37:16;69.03;;;38.07;;
19221;SDS011;9745;50.828;4.378;2023-05-14T05:39:42;69.00;;;36.17;;
19221;SDS011;9745;50.828;4.378;2023-05-14T05:42:08;61.10;;;35.97;;
19221;SDS011;9745;50.828;4.378;2023-05-14T05:44:35;69.30;;;37.57;;
19221;SDS011;9745;50.828;4.378;2023-05-14T05:47:01;73.30;;;36.50;;
19221;SDS011;9745;50.828;4.378;2023-05-14T05:49:27;64.83;;;35.87;;
19221;SDS011;9745;50.828;4.378;2023-05-14T05:51:53;63.37;;;37.63;;
19221;SDS011;9745;50.828;4.378;2023-05-14T05:54:19;73.40;;;38.50;;
19221;SDS011;9745;50.828;4.378;2023-05-14T05:56:45;71.17;;;38.53;;
19221;SDS011;9745;50.828;4.378;2023-05-14T05:59:11;64.63;;;35.20;;
19221;SDS011;9745;50.828;4.378;2023-05-14T06:01:37;63.03;;;36.60;;
19221;SDS011;9745;50.828;4.378;2023-05-14T06:04:04;62.03;;;34.07;;
19221;SDS011;9745;50.828;4.378;2023-05-14T06:06:30;59.77;;;35.00;;
19221;SDS011;9745;50.828;4.378;2023-05-14T06:08:57;61.87;;;36.37;;
19221;SDS011;9745;50.828;4.378;2023-05-14T06:11:23;65.90;;;36.07;;
19221;SDS011;9745;50.828;4.378;2023-05-14T06:13:49;65.13;;;36.93;;
19221;SDS011;9745;50.828;4.378;2023-05-14T06:16:15;64.50;;;36.70;;
19221;SDS011;9745;50.828;4.378;2023-05-14T06:18:41;68.07;;;38.13;;
19221;SDS011;9745;50.828;4.378;2023-05-14T06:21:07;72.77;;;39.27;;
19221;SDS011;9745;50.828;4.378;2023-05-14T06:23:33;65.60;;;38.10;;
19221;SDS011;9745;50.828;4.378;2023-05-14T06:25:59;60.90;;;36.77;;
19221;SDS011;9745;50.828;4.378;2023-05-14T06:28:25;66.70;;;36.53;;
19221;SDS011;9745;50.828;4.378;2023-05-14T06:30:51;64.07;;;36.30;;
19221;SDS011;9745;50.828;4.378;2023-05-14T06:33:19;63.67;;;34.63;;
19221;SDS011;9745;50.828;4.378;2023-05-14T06:35:53;59.30;;;33.83;;
19221;SDS011;9745;50.828;4.378;2023-05-14T06:38:19;59.13;;;34.60;;
19221;SDS011;9745;50.828;4.378;2023-05-14T06:40:45;56.83;;;32.10;;
19221;SDS011;9745;50.828;4.378;2023-05-14T06:43:11;54.73;;;31.93;;
19221;SDS011;9745;50.828;4.378;2023-05-14T06:45:37;51.47;;;30.67;;
19221;SDS011;9745;50.828;4.378;2023-05-14T06:48:03;54.40;;;31.67;;
19221;SDS011;9745;50.828;4.378;2023-05-14T06:50:29;48.57;;;28.97;;
19221;SDS011;9745;50.828;4.378;2023-05-14T06:52:55;49.37;;;30.57;;
19221;SDS011;9745;50.828;4.378;2023-05-14T06:55:21;50.00;;;30.83;;
19221;SDS011;9745;50.828;4.378;2023-05-14T06:57:47;50.93;;;29.93;;
19221;SDS011;9745;50.828;4.378;2023-05-14T07:00:14;53.83;;;29.37;;
19221;SDS011;9745;50.828;4.378;2023-05-14T07:02:40;48.03;;;27.90;;
19221;SDS011;9745;50.828;4.378;2023-05-14T07:05:07;58.77;;;32.27;;
19221;SDS011;9745;50.828;4.378;2023-05-14T07:07:33;52.47;;;29.90;;
19221;SDS011;9745;50.828;4.378;2023-05-14T07:09:59;58.87;;;32.53;;
19221;SDS011;9745;50.828;4.378;2023-05-14T07:12:25;53.27;;;31.20;;
19221;SDS011;9745;50.828;4.378;2023-05-14T07:14:51;61.00;;;32.83;;
19221;SDS011;9745;50.828;4.378;2023-05-14T07:17:17;58.70;;;32.87;;
19221;SDS011;9745;50.828;4.378;2023-05-14T07:19:43;60.97;;;32.77;;
19221;SDS011;9745;50.828;4.378;2023-05-14T07:22:09;61.30;;;34.37;;
19221;SDS011;9745;50.828;4.378;2023-05-14T07:24:35;61.10;;;34.80;;
19221;SDS011;9745;50.828;4.378;2023-05-14T07:27:01;59.13;;;32.73;;
19221;SDS011;9745;50.828;4.378;2023-05-14T07:29:27;62.97;;;32.67;;
19221;SDS011;9745;50.828;4.378;2023-05-14T07:31:54;63.20;;;34.77;;
19221;SDS011;9745;50.828;4.378;2023-05-14T07:34:20;58.80;;;34.93;;
19221;SDS011;9745;50.828;4.378;2023-05-14T07:36:46;51.93;;;30.77;;
19221;SDS011;9745;50.828;4.378;2023-05-14T07:39:14;55.27;;;30.63;;
19221;SDS011;9745;50.828;4.378;2023-05-14T07:41:40;63.97;;;37.27;;
19221;SDS011;9745;50.828;4.378;2023-05-14T07:44:06;63.00;;;35.20;;
19221;SDS011;9745;50.828;4.378;2023-05-14T07:46:32;56.73;;;31.37;;
19221;SDS011;9745;50.828;4.378;2023-05-14T07:48:58;49.27;;;30.03;;
19221;SDS011;9745;50.828;4.378;2023-05-14T07:51:24;52.83;;;31.33;;
19221;SDS011;9745;50.828;4.378;2023-05-14T07:53:52;52.93;;;30.80;;
19221;SDS011;9745;50.828;4.378;2023-05-14T07:56:19;50.93;;;30.67;;
19221;SDS011;9745;50.828;4.378;2023-05-14T07:58:46;53.50;;;31.30;;
19221;SDS011;9745;50.828;4.378;2023-05-14T08:01:12;53.37;;;31.40;;
19221;SDS011;9745;50.828;4.378;2023-05-14T08:03:38;54.77;;;30.73;;
19221;SDS011;9745;50.828;4.378;2023-05-14T08:06:04;54.83;;;30.67;;
19221;SDS011;9745;50.828;4.378;2023-05-14T08:08:30;52.97;;;32.20;;
19221;SDS011;9745;50.828;4.378;2023-05-14T08:10:56;50.50;;;31.10;;
19221;SDS011;9745;50.828;4.378;2023-05-14T08:13:22;49.80;;;30.00;;
19221;SDS011;9745;50.828;4.378;2023-05-14T08:15:48;54.20;;;29.53;;
19221;SDS011;9745;50.828;4.378;2023-05-14T08:18:14;47.47;;;29.40;;
19221;SDS011;9745;50.828;4.378;2023-05-14T08:20:40;53.50;;;30.00;;
19221;SDS011;9745;50.828;4.378;2023-05-14T08:23:06;49.67;;;29.10;;
19221;SDS011;9745;50.828;4.378;2023-05-14T08:25:33;50.70;;;29.33;;
19221;SDS011;9745;50.828;4.378;2023-05-14T08:27:59;45.70;;;28.50;;
19221;SDS011;9745;50.828;4.378;2023-05-14T08:30:25;41.00;;;27.33;;
19221;SDS011;9745;50.828;4.378;2023-05-14T08:32:52;43.60;;;27.70;;
19221;SDS011;9745;50.828;4.378;2023-05-14T08:35:18;41.23;;;26.33;;
19221;SDS011;9745;50.828;4.378;2023-05-14T08:37:50;46.13;;;27.67;;
19221;SDS011;9745;50.828;4.378;2023-05-14T08:40:16;44.67;;;28.10;;
19221;SDS011;9745;50.828;4.378;2023-05-14T08:42:42;36.93;;;26.07;;
19221;SDS011;9745;50.828;4.378;2023-05-14T08:45:14;40.87;;;25.13;;
19221;SDS011;9745;50.828;4.378;2023-05-14T08:47:41;36.00;;;23.43;;
19221;SDS011;9745;50.828;4.378;2023-05-14T08:50:09;40.40;;;26.03;;
19221;SDS011;9745;50.828;4.378;2023-05-14T08:52:35;36.60;;;23.63;;
19221;SDS011;9745;50.828;4.378;2023-05-14T08:55:02;36.90;;;24.07;;
19221;SDS011;9745;50.828;4.378;2023-05-14T08:57:29;38.33;;;23.90;;
19221;SDS011;9745;50.828;4.378;2023-05-14T08:59:56;39.10;;;23.70;;
19221;SDS011;9745;50.828;4.378;2023-05-14T09:02:23;33.67;;;24.00;;
19221;SDS011;9745;50.828;4.378;2023-05-14T09:04:52;43.27;;;22.93;;
19221;SDS011;9745;50.828;4.378;2023-05-14T09:07:19;39.60;;;23.77;;
19221;SDS011;9745;50.828;4.378;2023-05-14T09:09:45;35.50;;;23.57;;
19221;SDS011;9745;50.828;4.378;2023-05-14T09:12:11;38.43;;;24.33;;
19221;SDS011;9745;50.828;4.378;2023-05-14T09:14:37;32.60;;;22.60;;
19221;SDS011;9745;50.828;4.378;2023-05-14T09:17:03;31.17;;;22.43;;
19221;SDS011;9745;50.828;4.378;2023-05-14T09:19:29;35.80;;;22.63;;
19221;SDS011;9745;50.828;4.378;2023-05-14T09:21:56;34.23;;;23.20;;
19221;SDS011;9745;50.828;4.378;2023-05-14T09:24:26;34.93;;;22.10;;
19221;SDS011;9745;50.828;4.378;2023-05-14T09:26:56;33.80;;;22.63;;
19221;SDS011;9745;50.828;4.378;2023-05-14T09:29:28;34.13;;;21.77;;
19221;SDS011;9745;50.828;4.378;2023-05-14T09:31:55;28.53;;;20.63;;
19221;SDS011;9745;50.828;4.378;2023-05-14T09:34:28;30.80;;;20.97;;
19221;SDS011;9745;50.828;4.378;2023-05-14T09:36:58;34.03;;;22.27;;
19221;SDS011;9745;50.828;4.378;2023-05-14T09:39:25;30.03;;;21.87;;
19221;SDS011;9745;50.828;4.378;2023-05-14T09:41:51;27.57;;;20.87;;
19221;SDS011;9745;50.828;4.378;2023-05-14T09:44:17;27.50;;;19.97;;
19221;SDS011;9745;50.828;4.378;2023-05-14T09:46:44;27.23;;;19.43;;
19221;SDS011;9745;50.828;4.378;2023-05-14T09:49:10;22.63;;;18.73;;
19221;SDS011;9745;50.828;4.378;2023-05-14T09:51:36;24.57;;;19.03;;
19221;SDS011;9745;50.828;4.378;2023-05-14T09:54:03;23.03;;;17.97;;
19221;SDS011;9745;50.828;4.378;2023-05-14T09:56:29;23.43;;;16.93;;
19221;SDS011;9745;50.828;4.378;2023-05-14T09:58:55;25.20;;;18.03;;
19221;SDS011;9745;50.828;4.378;2023-05-14T10:01:21;25.23;;;18.97;;
19221;SDS011;9745;50.828;4.378;2023-05-14T10:03:48;28.03;;;18.87;;
19221;SDS011;9745;50.828;4.378;2023-05-14T10:06:15;27.20;;;19.13;;
19221;SDS011;9745;50.828;4.378;2023-05-14T10:08:46;26.60;;;18.43;;
19221;SDS011;9745;50.828;4.378;2023-05-14T10:11:14;26.10;;;18.53;;
19221;SDS011;9745;50.828;4.378;2023-05-14T10:13:47;26.70;;;19.27;;
19221;SDS011;9745;50.828;4.378;2023-05-14T10:16:23;24.30;;;19.07;;
19221;SDS011;9745;50.828;4.378;2023-05-14T10:18:54;25.53;;;18.67;;
19221;SDS011;9745;50.828;4.378;2023-05-14T10:21:21;26.77;;;18.40;;
19221;SDS011;9745;50.828;4.378;2023-05-14T10:23:48;24.83;;;19.77;;
19221;SDS011;9745;50.828;4.378;2023-05-14T10:26:15;22.63;;;18.67;;
19221;SDS011;9745;50.828;4.378;2023-05-14T10:28:41;23.63;;;19.20;;
19221;SDS011;9745;50.828;4.378;2023-05-14T10:31:10;23.50;;;18.50;;
19221;SDS011;9745;50.828;4.378;2023-05-14T10:33:47;22.93;;;17.43;;
19221;SDS011;9745;50.828;4.378;2023-05-14T10:36:14;23.93;;;18.43;;
19221;SDS011;9745;50.828;4.378;2023-05-14T10:38:40;25.53;;;18.57;;
19221;SDS011;9745;50.828;4.378;2023-05-14T10:41:09;25.47;;;19.00;;
19221;SDS011;9745;50.828;4.378;2023-05-14T10:43:36;23.03;;;18.33;;
19221;SDS011;9745;50.828;4.378;2023-05-14T10:46:03;24.87;;;18.13;;
19221;SDS011;9745;50.828;4.378;2023-05-14T10:48:29;23.87;;;18.47;;
19221;SDS011;9745;50.828;4.378;2023-05-14T10:50:55;25.70;;;19.20;;
19221;SDS011;9745;50.828;4.378;2023-05-14T10:53:35;27.30;;;18.50;;
19221;SDS011;9745;50.828;4.378;2023-05-14T10:56:05;24.90;;;18.83;;
19221;SDS011;9745;50.828;4.378;2023-05-14T10:58:34;26.33;;;18.27;;
19221;SDS011;9745;50.828;4.378;2023-05-14T11:01:00;25.33;;;18.17;;
19221;SDS011;9745;50.828;4.378;2023-05-14T11:03:29;22.27;;;16.80;;
19221;SDS011;9745;50.828;4.378;2023-05-14T11:05:56;27.47;;;17.93;;
19221;SDS011;9745;50.828;4.378;2023-05-14T11:08:22;30.23;;;20.23;;
19221;SDS011;9745;50.828;4.378;2023-05-14T11:10:53;27.90;;;19.50;;
19221;SDS011;9745;50.828;4.378;2023-05-14T11:13:20;24.27;;;18.57;;
19221;SDS011;9745;50.828;4.378;2023-05-14T11:15:46;29.67;;;19.20;;
19221;SDS011;9745;50.828;4.378;2023-05-14T11:18:13;21.13;;;16.73;;
19221;SDS011;9745;50.828;4.378;2023-05-14T11:20:50;22.33;;;17.17;;
19221;SDS011;9745;50.828;4.378;2023-05-14T11:23:16;23.10;;;18.13;;
19221;SDS011;9745;50.828;4.378;2023-05-14T11:25:42;27.07;;;18.53;;
19221;SDS011;9745;50.828;4.378;2023-05-14T11:28:08;24.40;;;17.50;;
19221;SDS011;9745;50.828;4.378;2023-05-14T11:30:34;25.10;;;18.40;;
19221;SDS011;9745;50.828;4.378;2023-05-14T11:33:00;25.57;;;18.43;;
19221;SDS011;9745;50.828;4.378;2023-05-14T11:35:27;25.73;;;17.77;;
19221;SDS011;9745;50.828;4.378;2023-05-14T11:37:53;26.33;;;18.23;;
19221;SDS011;9745;50.828;4.378;2023-05-14T11:40:19;28.43;;;19.10;;
19221;SDS011;9745;50.828;4.378;2023-05-14T11:42:45;24.47;;;18.47;;
19221;SDS011;9745;50.828;4.378;2023-05-14T11:45:12;24.13;;;18.27;;
19221;SDS011;9745;50.828;4.378;2023-05-14T11:47:39;26.40;;;17.53;;
19221;SDS011;9745;50.828;4.378;2023-05-14T11:50:06;22.20;;;16.50;;
19221;SDS011;9745;50.828;4.378;2023-05-14T11:52:36;26.57;;;16.77;;
19221;SDS011;9745;50.828;4.378;2023-05-14T11:55:02;28.43;;;18.43;;
19221;SDS011;9745;50.828;4.378;2023-05-14T11:57:29;26.00;;;18.47;;
19221;SDS011;9745;50.828;4.378;2023-05-14T11:59:55;23.63;;;17.43;;
19221;SDS011;9745;50.828;4.378;2023-05-14T12:02:22;25.40;;;17.53;;
19221;SDS011;9745;50.828;4.378;2023-05-14T12:04:48;24.73;;;15.90;;
19221;SDS011;9745;50.828;4.378;2023-05-14T12:07:18;27.37;;;18.47;;
19221;SDS011;9745;50.828;4.378;2023-05-14T12:09:44;24.63;;;17.50;;
19221;SDS011;9745;50.828;4.378;2023-05-14T12:12:13;22.73;;;16.07;;
19221;SDS011;9745;50.828;4.378;2023-05-14T12:14:40;25.63;;;17.93;;
19221;SDS011;9745;50.828;4.378;2023-05-14T12:17:15;28.80;;;18.50;;
19221;SDS011;9745;50.828;4.378;2023-05-14T12:19:51;22.77;;;17.03;;
19221;SDS011;9745;50.828;4.378;2023-05-14T12:22:18;22.63;;;16.90;;
19221;SDS011;9745;50.828;4.378;2023-05-14T12:24:53;24.73;;;16.50;;
19221;SDS011;9745;50.828;4.378;2023-05-14T12:27:29;26.47;;;17.57;;
19221;SDS011;9745;50.828;4.378;2023-05-14T12:29:58;21.97;;;15.90;;
19221;SDS011;9745;50.828;4.378;2023-05-14T12:32:25;23.80;;;17.50;;
19221;SDS011;9745;50.828;4.378;2023-05-14T12:34:51;21.97;;;16.87;;
19221;SDS011;9745;50.828;4.378;2023-05-14T12:37:19;21.80;;;16.47;;
19221;SDS011;9745;50.828;4.378;2023-05-14T12:40:04;21.83;;;16.63;;
19221;SDS011;9745;50.828;4.378;2023-05-14T12:42:33;23.30;;;15.53;;
19221;SDS011;9745;50.828;4.378;2023-05-14T12:45:02;24.10;;;16.00;;
19221;SDS011;9745;50.828;4.378;2023-05-14T12:47:31;22.77;;;16.00;;
19221;SDS011;9745;50.828;4.378;2023-05-14T12:49:57;21.30;;;16.00;;
19221;SDS011;9745;50.828;4.378;2023-05-14T12:52:23;30.27;;;16.77;;
19221;SDS011;9745;50.828;4.378;2023-05-14T12:54:49;24.43;;;17.23;;
19221;SDS011;9745;50.828;4.378;2023-05-14T12:57:15;23.23;;;16.77;;
19221;SDS011;9745;50.828;4.378;2023-05-14T12:59:41;24.43;;;16.40;;
19221;SDS011;9745;50.828;4.378;2023-05-14T13:02:07;26.10;;;16.37;;
19221;SDS011;9745;50.828;4.378;2023-05-14T13:04:33;23.23;;;16.30;;
19221;SDS011;9745;50.828;4.378;2023-05-14T13:07:02;24.43;;;18.30;;
19221;SDS011;9745;50.828;4.378;2023-05-14T13:09:28;22.20;;;15.70;;
19221;SDS011;9745;50.828;4.378;2023-05-14T13:11:54;25.17;;;17.50;;
19221;SDS011;9745;50.828;4.378;2023-05-14T13:14:20;21.60;;;16.43;;
19221;SDS011;9745;50.828;4.378;2023-05-14T13:16:46;22.27;;;16.13;;
19221;SDS011;9745;50.828;4.378;2023-05-14T13:19:12;17.77;;;14.80;;
19221;SDS011;9745;50.828;4.378;2023-05-14T13:21:38;21.53;;;14.60;;
19221;SDS011;9745;50.828;4.378;2023-05-14T13:24:05;20.37;;;14.53;;
19221;SDS011;9745;50.828;4.378;2023-05-14T13:26:31;20.33;;;15.83;;
19221;SDS011;9745;50.828;4.378;2023-05-14T13:28:57;23.23;;;15.50;;
19221;SDS011;9745;50.828;4.378;2023-05-14T13:31:23;20.83;;;15.43;;
19221;SDS011;9745;50.828;4.378;2023-05-14T13:33:49;18.03;;;14.47;;
19221;SDS011;9745;50.828;4.378;2023-05-14T13:36:15;20.37;;;14.37;;
19221;SDS011;9745;50.828;4.378;2023-05-14T13:38:41;20.23;;;14.53;;
19221;SDS011;9745;50.828;4.378;2023-05-14T13:41:08;17.97;;;13.57;;
19221;SDS011;9745;50.828;4.378;2023-05-14T13:43:34;19.90;;;15.10;;
19221;SDS011;9745;50.828;4.378;2023-05-14T13:46:01;17.43;;;13.00;;
19221;SDS011;9745;50.828;4.378;2023-05-14T13:48:27;19.10;;;14.20;;
19221;SDS011;9745;50.828;4.378;2023-05-14T13:50:55;16.53;;;13.57;;
19221;SDS011;9745;50.828;4.378;2023-05-14T13:53:21;20.73;;;13.67;;
19221;SDS011;9745;50.828;4.378;2023-05-14T13:55:48;18.90;;;11.87;;
19221;SDS011;9745;50.828;4.378;2023-05-14T13:58:14;18.97;;;12.70;;
19221;SDS011;9745;50.828;4.378;2023-05-14T14:00:40;14.63;;;11.77;;
19221;SDS011;9745;50.828;4.378;2023-05-14T14:03:07;16.03;;;12.77;;
19221;SDS011;9745;50.828;4.378;2023-05-14T14:05:36;20.87;;;13.40;;
19221;SDS011;9745;50.828;4.378;2023-05-14T14:08:02;15.73;;;12.93;;
19221;SDS011;9745;50.828;4.378;2023-05-14T14:10:28;17.93;;;11.93;;
19221;SDS011;9745;50.828;4.378;2023-05-14T14:12:54;16.53;;;12.10;;
19221;SDS011;9745;50.828;4.378;2023-05-14T14:15:20;17.10;;;12.97;;
19221;SDS011;9745;50.828;4.378;2023-05-14T14:17:46;15.30;;;12.43;;
19221;SDS011;9745;50.828;4.378;2023-05-14T14:20:13;18.70;;;13.13;;
19221;SDS011;9745;50.828;4.378;2023-05-14T14:22:39;14.83;;;11.43;;
19221;SDS011;9745;50.828;4.378;2023-05-14T14:25:05;13.97;;;10.27;;
19221;SDS011;9745;50.828;4.378;2023-05-14T14:27:33;14.07;;;10.27;;
19221;SDS011;9745;50.828;4.378;2023-05-14T14:30:03;17.13;;;10.77;;
19221;SDS011;9745;50.828;4.378;2023-05-14T14:32:29;18.47;;;11.50;;
19221;SDS011;9745;50.828;4.378;2023-05-14T14:34:55;15.60;;;10.93;;
19221;SDS011;9745;50.828;4.378;2023-05-14T14:37:21;17.50;;;10.93;;
19221;SDS011;9745;50.828;4.378;2023-05-14T14:39:47;12.63;;;9.73;;
19221;SDS011;9745;50.828;4.378;2023-05-14T14:42:13;11.23;;;9.23;;
19221;SDS011;9745;50.828;4.378;2023-05-14T14:44:39;12.37;;;8.57;;